createdAt,value
2019-05-07T00:02:14.839Z,7.03
2019-05-07T00:04:44.576Z,7.70
2019-05-07T00:07:14.463Z,7.53
2019-05-07T00:09:44.217Z,7.93
2019-05-07T00:12:13.957Z,8.13
2019-05-07T00:14:57.369Z,7.23
2019-05-07T00:17:15.030Z,7.00
2019-05-07T00:19:44.798Z,7.67
2019-05-07T00:22:14.497Z,7.27
2019-05-07T00:24:44.240Z,7.20
2019-05-07T00:27:13.983Z,7.43
2019-05-07T00:29:43.660Z,7.70
2019-05-07T00:32:13.441Z,7.30
2019-05-07T00:34:48.149Z,7.37
2019-05-07T00:37:46.001Z,7.13
2019-05-07T00:40:38.156Z,7.67
2019-05-07T00:43:32.925Z,7.77
2019-05-07T00:46:12.985Z,8.20
2019-05-07T00:48:42.850Z,8.57
2019-05-07T00:51:30.410Z,9.17
2019-05-07T00:54:02.870Z,8.40
2019-05-07T00:56:33.311Z,8.23
2019-05-07T00:59:03.436Z,8.60
2019-05-07T01:01:34.135Z,9.73
2019-05-07T01:04:04.005Z,9.80
2019-05-07T01:06:33.919Z,9.20
2019-05-07T01:09:05.333Z,8.43
2019-05-07T01:11:35.180Z,10.30
2019-05-07T01:14:04.895Z,9.20
2019-05-07T01:16:34.596Z,9.80
2019-05-07T01:19:04.363Z,9.43
2019-05-07T01:21:34.060Z,9.50
2019-05-07T01:24:03.794Z,9.37
2019-05-07T01:26:33.705Z,8.87
2019-05-07T01:29:03.563Z,9.63
2019-05-07T01:31:38.233Z,9.03
2019-05-07T01:34:23.161Z,9.03
2019-05-07T01:36:52.948Z,9.03
2019-05-07T01:39:23.146Z,9.77
2019-05-07T01:41:53.487Z,9.77
2019-05-07T01:44:23.177Z,8.97
2019-05-07T01:46:53.048Z,9.07
2019-05-07T01:49:24.062Z,9.10
2019-05-07T01:51:54.353Z,9.33
2019-05-07T01:54:25.083Z,9.23
2019-05-07T01:56:54.801Z,8.83
2019-05-07T01:59:24.516Z,9.97
2019-05-07T02:01:56.784Z,9.73
2019-05-07T02:04:33.111Z,9.40
2019-05-07T02:07:30.935Z,9.87
2019-05-07T02:10:32.197Z,8.60
2019-05-07T02:13:02.400Z,9.23
2019-05-07T02:15:32.463Z,9.37
2019-05-07T02:18:02.399Z,10.30
2019-05-07T02:20:32.375Z,10.07
2019-05-07T02:23:02.845Z,9.03
2019-05-07T02:25:32.989Z,9.23
2019-05-07T02:28:02.963Z,10.67
2019-05-07T02:30:35.116Z,8.90
2019-05-07T02:33:04.097Z,9.40
2019-05-07T02:35:33.864Z,10.13
2019-05-07T02:38:13.762Z,9.87
2019-05-07T02:40:48.941Z,8.63
2019-05-07T02:43:18.645Z,9.37
2019-05-07T02:46:25.071Z,9.20
2019-05-07T02:48:53.656Z,9.30
2019-05-07T02:51:29.342Z,9.07
2019-05-07T02:54:05.307Z,9.67
2019-05-07T02:56:35.044Z,10.10
2019-05-07T02:59:04.797Z,9.87
2019-05-07T03:01:34.557Z,9.30
2019-05-07T03:04:04.330Z,8.63
2019-05-07T03:06:34.330Z,9.37
2019-05-07T03:09:04.719Z,9.53
2019-05-07T03:11:34.496Z,10.27
2019-05-07T03:14:04.453Z,10.27
2019-05-07T03:16:42.541Z,11.40
2019-05-07T03:19:05.605Z,10.90
2019-05-07T03:21:54.289Z,9.47
2019-05-07T03:24:44.567Z,10.27
2019-05-07T03:27:15.000Z,9.73
2019-05-07T03:29:53.391Z,10.13
2019-05-07T03:32:36.818Z,9.63
2019-05-07T03:35:20.451Z,9.47
2019-05-07T03:37:50.822Z,10.27
2019-05-07T03:40:22.878Z,10.50
2019-05-07T03:42:53.442Z,10.30
2019-05-07T03:45:34.089Z,9.90
2019-05-07T03:48:14.811Z,10.03
2019-05-07T03:50:44.585Z,10.20
2019-05-07T03:53:14.650Z,10.00
2019-05-07T03:55:44.946Z,10.03
2019-05-07T03:58:15.077Z,9.87
2019-05-07T04:00:45.871Z,9.50
2019-05-07T04:03:19.218Z,9.33
2019-05-07T04:05:48.291Z,9.30
2019-05-07T04:08:18.005Z,9.10
2019-05-07T04:10:47.677Z,8.40
2019-05-07T04:13:17.374Z,8.83
2019-05-07T04:15:47.138Z,8.43
2019-05-07T04:18:16.794Z,8.37
2019-05-07T04:20:46.482Z,8.90
2019-05-07T04:23:16.210Z,8.80
2019-05-07T04:26:04.462Z,7.97
2019-05-07T04:29:05.581Z,8.40
2019-05-07T04:31:37.943Z,7.40
2019-05-07T04:34:16.087Z,8.37
2019-05-07T04:36:48.197Z,7.97
2019-05-07T04:39:17.930Z,8.90
2019-05-07T04:41:47.614Z,8.13
2019-05-07T04:44:19.751Z,8.23
2019-05-07T04:46:49.532Z,7.90
2019-05-07T04:49:19.331Z,8.50
2019-05-07T04:51:58.872Z,7.53
2019-05-07T04:54:28.750Z,8.37
2019-05-07T04:56:58.477Z,7.77
2019-05-07T04:59:28.165Z,7.30
2019-05-07T05:02:04.345Z,7.37
2019-05-07T05:04:35.076Z,7.50
2019-05-07T05:07:04.825Z,6.83
2019-05-07T05:09:34.509Z,8.63
2019-05-07T05:12:04.229Z,9.37
2019-05-07T05:14:34.150Z,5.30
2019-05-07T05:17:04.008Z,6.53
2019-05-07T05:19:33.773Z,6.10
2019-05-07T05:22:22.036Z,7.57
2019-05-07T05:25:08.413Z,6.07
2019-05-07T05:27:38.255Z,6.50
2019-05-07T05:30:12.305Z,6.87
2019-05-07T05:32:42.447Z,5.90
2019-05-07T05:35:12.739Z,5.80
2019-05-07T05:37:43.010Z,5.60
2019-05-07T05:40:13.408Z,6.40
2019-05-07T05:42:49.296Z,6.30
2019-05-07T05:45:34.195Z,5.80
2019-05-07T05:48:08.005Z,6.43
2019-05-07T05:50:43.633Z,5.43
2019-05-07T05:53:24.286Z,5.40
2019-05-07T05:55:55.311Z,5.50
2019-05-07T05:58:43.200Z,5.60
2019-05-07T06:01:28.596Z,5.50
2019-05-07T06:04:05.946Z,5.57
2019-05-07T06:07:11.329Z,5.23
2019-05-07T06:10:14.847Z,4.60
2019-05-07T06:12:55.609Z,5.37
2019-05-07T06:15:43.151Z,5.47
2019-05-07T06:18:32.737Z,5.10
2019-05-07T06:21:16.774Z,4.97
2019-05-07T06:23:52.689Z,4.70
2019-05-07T06:26:22.732Z,4.93
2019-05-07T06:28:52.540Z,4.80
2019-05-07T06:31:25.160Z,4.80
2019-05-07T06:33:54.925Z,4.87
2019-05-07T06:36:27.224Z,4.93
2019-05-07T06:39:08.106Z,5.10
2019-05-07T06:41:55.415Z,5.50
2019-05-07T06:44:27.932Z,5.67
2019-05-07T06:46:57.686Z,5.37
2019-05-07T06:49:27.453Z,5.20
2019-05-07T06:51:57.148Z,4.50
2019-05-07T06:54:26.975Z,5.50
2019-05-07T06:56:56.753Z,4.63
2019-05-07T06:59:34.793Z,5.20
2019-05-07T07:02:23.000Z,4.77
2019-05-07T07:05:06.589Z,5.27
2019-05-07T07:07:53.161Z,4.50
2019-05-07T07:10:32.907Z,4.00
2019-05-07T07:13:02.751Z,4.17
2019-05-07T07:15:32.561Z,3.83
2019-05-07T07:18:03.147Z,3.70
2019-05-07T07:20:33.058Z,4.07
2019-05-07T07:23:02.723Z,4.47
2019-05-07T07:25:32.725Z,4.20
2019-05-07T07:28:02.850Z,4.07
2019-05-07T07:31:09.929Z,5.17
2019-05-07T07:33:43.686Z,3.63
2019-05-07T07:36:13.287Z,3.30
2019-05-07T07:38:43.029Z,3.63
2019-05-07T07:41:22.435Z,3.40
2019-05-07T07:43:52.656Z,3.83
2019-05-07T07:46:22.911Z,3.63
2019-05-07T07:49:06.671Z,3.70
2019-05-07T07:51:38.088Z,3.63
2019-05-07T07:53:55.324Z,3.23
2019-05-07T07:57:02.495Z,3.30
2019-05-07T07:59:52.872Z,3.33
2019-05-07T08:02:36.321Z,3.83
2019-05-07T08:05:08.898Z,3.83
2019-05-07T08:07:38.352Z,4.40
2019-05-07T08:10:09.825Z,3.80
2019-05-07T08:12:42.209Z,3.47
2019-05-07T08:15:18.073Z,3.27
2019-05-07T08:17:43.839Z,3.57
2019-05-07T08:20:14.020Z,3.30
2019-05-07T08:22:45.069Z,3.50
2019-05-07T08:25:15.058Z,3.87
2019-05-07T08:27:44.828Z,3.60
2019-05-07T08:30:22.696Z,4.20
2019-05-07T08:33:03.740Z,3.60
2019-05-07T08:35:46.259Z,3.50
2019-05-07T08:38:18.739Z,3.43
2019-05-07T08:40:52.118Z,3.50
2019-05-07T08:43:22.723Z,3.80
2019-05-07T08:46:16.768Z,3.50
2019-05-07T08:48:52.806Z,3.40
2019-05-07T08:51:22.556Z,4.10
2019-05-07T08:54:05.768Z,4.00
2019-05-07T08:56:36.771Z,3.90
2019-05-07T08:59:08.479Z,4.17
2019-05-07T09:01:43.242Z,4.10
2019-05-07T09:04:13.642Z,4.23
2019-05-07T09:06:44.467Z,3.77
2019-05-07T09:09:17.562Z,3.57
2019-05-07T09:11:49.207Z,3.40
2019-05-07T09:14:26.125Z,4.00
2019-05-07T09:17:02.562Z,3.30
2019-05-07T09:19:50.593Z,3.13
2019-05-07T09:22:22.894Z,3.87
2019-05-07T09:24:52.588Z,3.27
2019-05-07T09:27:52.789Z,3.17
2019-05-07T09:30:30.002Z,2.73
2019-05-07T09:33:04.281Z,2.97
2019-05-07T09:35:42.425Z,2.47
2019-05-07T09:38:12.568Z,2.93
2019-05-07T09:40:42.278Z,2.77
2019-05-07T09:43:12.007Z,2.50
2019-05-07T09:45:42.025Z,2.47
2019-05-07T09:48:12.168Z,2.43
2019-05-07T09:50:42.997Z,2.70
2019-05-07T09:53:12.930Z,2.60
2019-05-07T09:55:42.862Z,2.70
2019-05-07T09:58:12.766Z,2.83
2019-05-07T10:00:42.705Z,2.93
2019-05-07T10:03:12.901Z,3.30
2019-05-07T10:05:43.043Z,2.83
2019-05-07T10:08:13.099Z,3.00
2019-05-07T10:10:45.069Z,2.90
2019-05-07T10:13:27.961Z,3.30
2019-05-07T10:15:57.697Z,3.20
2019-05-07T10:18:27.356Z,3.07
2019-05-07T10:20:57.210Z,3.20
2019-05-07T10:23:26.928Z,3.53
2019-05-07T10:25:57.818Z,3.60
2019-05-07T10:28:27.610Z,3.47
2019-05-07T10:30:57.321Z,3.53
2019-05-07T10:33:28.551Z,3.53
2019-05-07T10:35:58.475Z,3.20
2019-05-07T10:38:28.243Z,3.43
2019-05-07T10:40:58.696Z,3.10
2019-05-07T10:43:28.380Z,3.30
2019-05-07T10:46:15.268Z,3.00
2019-05-07T10:48:59.109Z,3.23
2019-05-07T10:51:28.876Z,3.23
2019-05-07T10:53:58.559Z,3.47
2019-05-07T10:56:28.245Z,3.33
2019-05-07T10:58:57.996Z,3.60
2019-05-07T11:01:34.833Z,3.60
2019-05-07T11:04:04.818Z,3.03
2019-05-07T11:06:34.553Z,3.27
2019-05-07T11:09:05.553Z,2.93
2019-05-07T11:11:35.308Z,2.90
2019-05-07T11:14:05.074Z,3.03
2019-05-07T11:16:42.972Z,3.53
2019-05-07T11:19:12.691Z,3.60
2019-05-07T11:21:42.639Z,2.80
2019-05-07T11:24:12.334Z,3.37
2019-05-07T11:26:42.073Z,3.47
2019-05-07T11:29:13.002Z,3.23
2019-05-07T11:31:42.800Z,2.90
2019-05-07T11:34:13.867Z,3.17
2019-05-07T11:36:44.122Z,2.93
2019-05-07T11:39:13.884Z,2.70
2019-05-07T11:42:09.553Z,3.23
2019-05-07T11:44:39.218Z,3.30
2019-05-07T11:47:27.136Z,3.10
2019-05-07T11:50:22.999Z,3.33
2019-05-07T11:52:57.736Z,3.23
2019-05-07T11:55:27.437Z,3.30
2019-05-07T11:57:57.132Z,3.13
2019-05-07T12:00:40.053Z,3.33
2019-05-07T12:03:09.820Z,3.23
2019-05-07T12:05:39.514Z,3.00
2019-05-07T12:08:09.275Z,3.07
2019-05-07T12:10:38.986Z,3.20
2019-05-07T12:13:08.655Z,3.00
2019-05-07T12:15:38.823Z,3.17
2019-05-07T12:18:08.529Z,3.30
2019-05-07T12:20:38.311Z,3.20
2019-05-07T12:23:08.023Z,3.00
2019-05-07T12:25:37.685Z,3.30
2019-05-07T12:28:07.499Z,3.10
2019-05-07T12:31:02.238Z,3.63
2019-05-07T12:33:52.211Z,3.37
2019-05-07T12:36:22.737Z,3.27
2019-05-07T12:38:53.389Z,3.10
2019-05-07T12:41:34.099Z,3.00
2019-05-07T12:44:06.874Z,2.80
2019-05-07T12:46:37.649Z,2.97
2019-05-07T12:49:08.359Z,3.33
2019-05-07T12:51:53.853Z,2.77
2019-05-07T12:54:42.096Z,3.33
2019-05-07T12:57:12.040Z,3.13
2019-05-07T12:59:42.590Z,2.77
2019-05-07T13:02:39.846Z,2.53
2019-05-07T13:05:03.029Z,2.50
2019-05-07T13:07:53.279Z,2.80
2019-05-07T13:10:23.017Z,2.40
2019-05-07T13:12:52.802Z,2.37
2019-05-07T13:15:27.608Z,2.30
2019-05-07T13:17:53.888Z,2.47
2019-05-07T13:20:23.807Z,2.50
2019-05-07T13:22:53.477Z,2.37
2019-05-07T13:25:28.389Z,2.20
2019-05-07T13:27:54.779Z,2.30
2019-05-07T13:30:24.568Z,2.13
2019-05-07T13:32:56.420Z,2.20
2019-05-07T13:35:26.806Z,2.23
2019-05-07T13:38:14.804Z,2.20
2019-05-07T13:41:02.560Z,2.40
2019-05-07T13:43:37.701Z,2.10
2019-05-07T13:46:11.899Z,2.40
2019-05-07T13:48:45.667Z,2.63
2019-05-07T13:51:15.593Z,2.30
2019-05-07T13:53:45.239Z,2.57
2019-05-07T13:56:14.971Z,2.33
2019-05-07T13:58:44.671Z,2.50
2019-05-07T14:01:27.926Z,2.43
2019-05-07T14:03:57.705Z,5.10
2019-05-07T14:06:39.583Z,4.87
2019-05-07T14:09:16.496Z,3.40
2019-05-07T14:11:46.192Z,3.50
2019-05-07T14:14:15.920Z,5.97
2019-05-07T14:16:45.812Z,7.83
2019-05-07T14:19:15.728Z,3.80
2019-05-07T14:21:45.440Z,2.50
2019-05-07T14:24:15.133Z,4.80
2019-05-07T14:26:44.818Z,3.57
2019-05-07T14:29:14.612Z,3.77
2019-05-07T14:31:46.036Z,5.13
2019-05-07T14:34:35.107Z,3.20
2019-05-07T14:37:27.807Z,2.80
2019-05-07T14:39:57.572Z,3.83
2019-05-07T14:42:33.225Z,3.63
2019-05-07T14:45:02.910Z,2.50
2019-05-07T14:47:32.558Z,2.83
2019-05-07T14:50:02.298Z,2.53
2019-05-07T14:52:33.754Z,5.77
2019-05-07T14:55:05.304Z,8.23
2019-05-07T14:57:35.082Z,3.40
2019-05-07T15:00:05.230Z,3.30
2019-05-07T15:02:36.925Z,2.33
2019-05-07T15:05:06.965Z,2.00
2019-05-07T15:07:36.629Z,1.73
2019-05-07T15:10:07.002Z,2.00
2019-05-07T15:12:36.737Z,1.90
2019-05-07T15:15:06.864Z,2.13
2019-05-07T15:17:58.508Z,2.33
2019-05-07T15:20:28.183Z,2.10
2019-05-07T15:23:09.238Z,1.80
2019-05-07T15:25:38.886Z,2.07
2019-05-07T15:28:08.813Z,2.07
2019-05-07T15:30:46.394Z,2.23
2019-05-07T15:33:16.076Z,2.43
2019-05-07T15:35:45.875Z,2.10
2019-05-07T15:38:15.558Z,2.23
2019-05-07T15:40:45.267Z,2.30
2019-05-07T15:43:14.998Z,2.17
2019-05-07T15:45:44.695Z,2.33
2019-05-07T15:48:14.412Z,2.30
2019-05-07T15:50:44.247Z,2.20
2019-05-07T15:53:22.060Z,2.63
2019-05-07T15:55:52.304Z,2.47
2019-05-07T15:58:23.237Z,2.30
2019-05-07T16:00:52.934Z,2.70
2019-05-07T16:03:42.946Z,2.90
2019-05-07T16:06:12.967Z,3.77
2019-05-07T16:08:49.555Z,2.70
2019-05-07T16:11:19.394Z,3.13
2019-05-07T16:14:12.383Z,3.70
2019-05-07T16:16:44.014Z,2.70
2019-05-07T16:19:18.304Z,3.23
2019-05-07T16:21:48.038Z,2.60
2019-05-07T16:24:17.707Z,2.97
2019-05-07T16:26:47.488Z,2.90
2019-05-07T16:29:17.242Z,2.73
2019-05-07T16:31:48.768Z,2.90
2019-05-07T16:34:18.478Z,3.40
2019-05-07T16:36:48.196Z,3.23
2019-05-07T16:39:17.875Z,3.73
2019-05-07T16:41:47.603Z,4.17
2019-05-07T16:44:18.192Z,3.03
2019-05-07T16:46:47.847Z,3.93
2019-05-07T16:49:17.589Z,4.20
2019-05-07T16:51:47.262Z,3.27
2019-05-07T16:54:16.983Z,4.40
2019-05-07T16:57:04.891Z,3.50
2019-05-07T16:59:34.644Z,3.77
2019-05-07T17:02:09.513Z,3.60
2019-05-07T17:04:42.551Z,3.20
2019-05-07T17:07:13.976Z,2.70
2019-05-07T17:09:43.764Z,3.40
2019-05-07T17:12:15.078Z,2.77
2019-05-07T17:14:44.860Z,2.93
2019-05-07T17:17:14.645Z,2.87
2019-05-07T17:19:44.368Z,2.80
2019-05-07T17:22:14.375Z,2.30
2019-05-07T17:24:44.056Z,2.47
2019-05-07T17:27:13.787Z,4.43
2019-05-07T17:29:43.482Z,4.90
2019-05-07T17:32:13.233Z,6.77
2019-05-07T17:34:42.937Z,3.10
2019-05-07T17:37:12.737Z,3.43
2019-05-07T17:39:42.691Z,3.40
2019-05-07T17:42:12.625Z,5.20
2019-05-07T17:44:42.321Z,5.20
2019-05-07T17:47:12.753Z,4.40
2019-05-07T17:49:43.504Z,3.70
2019-05-07T17:52:13.314Z,3.37
2019-05-07T17:54:43.001Z,3.37
2019-05-07T17:57:15.710Z,3.30
2019-05-07T17:59:44.019Z,3.57
2019-05-07T18:02:23.848Z,4.13
2019-05-07T18:04:54.668Z,4.73
2019-05-07T18:07:24.462Z,5.00
2019-05-07T18:09:54.173Z,4.87
2019-05-07T18:12:24.007Z,6.20
2019-05-07T18:14:53.698Z,8.27
2019-05-07T18:17:42.075Z,8.87
2019-05-07T18:20:12.852Z,9.30
2019-05-07T18:22:42.824Z,9.10
2019-05-07T18:25:12.676Z,8.00
2019-05-07T18:27:42.323Z,6.70
2019-05-07T18:30:12.866Z,7.77
2019-05-07T18:32:48.282Z,6.20
2019-05-07T18:35:18.027Z,6.43
2019-05-07T18:37:53.936Z,5.67
2019-05-07T18:40:23.964Z,6.23
2019-05-07T18:42:56.678Z,5.63
2019-05-07T18:45:26.389Z,5.97
2019-05-07T18:47:56.135Z,7.07
2019-05-07T18:50:25.804Z,6.83
2019-05-07T18:52:55.531Z,6.57
2019-05-07T18:55:25.260Z,7.50
2019-05-07T18:57:55.031Z,7.03
2019-05-07T19:00:31.799Z,7.33
2019-05-07T19:03:03.436Z,7.40
2019-05-07T19:05:33.076Z,9.60
2019-05-07T19:08:08.433Z,11.40
2019-05-07T19:10:36.644Z,13.60
2019-05-07T19:13:06.370Z,15.70
2019-05-07T19:15:36.274Z,16.00
2019-05-07T19:18:08.196Z,18.27
2019-05-07T19:20:39.480Z,16.03
2019-05-07T19:23:09.243Z,20.87
2019-05-07T19:25:38.937Z,19.17
2019-05-07T19:28:11.972Z,17.87
2019-05-07T19:30:42.026Z,17.83
2019-05-07T19:33:12.459Z,15.93
2019-05-07T19:35:42.508Z,15.70
2019-05-07T19:38:12.180Z,19.57
2019-05-07T19:40:42.065Z,19.67
2019-05-07T19:43:11.870Z,15.43
2019-05-07T19:45:41.901Z,14.97
2019-05-07T19:48:13.213Z,15.37
2019-05-07T19:50:42.903Z,17.07
2019-05-07T19:53:12.774Z,17.10
2019-05-07T19:56:02.022Z,19.73
2019-05-07T19:58:32.793Z,18.20
2019-05-07T20:01:03.987Z,20.30
2019-05-07T20:03:33.682Z,22.40
2019-05-07T20:06:03.538Z,20.23
2019-05-07T20:08:33.235Z,20.03
2019-05-07T20:11:13.356Z,18.27
2019-05-07T20:13:43.759Z,31.67
2019-05-07T20:16:18.038Z,30.63
2019-05-07T20:18:47.797Z,28.07
2019-05-07T20:21:17.467Z,24.77
2019-05-07T20:23:47.188Z,23.17
2019-05-07T20:26:16.937Z,24.23
2019-05-07T20:28:46.628Z,25.30
2019-05-07T20:31:16.354Z,22.43
2019-05-07T20:33:47.363Z,19.63
2019-05-07T20:36:17.067Z,19.90
2019-05-07T20:39:02.175Z,19.07
2019-05-07T20:41:32.551Z,19.93
2019-05-07T20:44:03.096Z,19.50
2019-05-07T20:46:33.126Z,20.07
2019-05-07T20:49:03.161Z,18.10
2019-05-07T20:51:33.181Z,17.47
2019-05-07T20:54:22.873Z,18.17
2019-05-07T20:57:05.431Z,18.30
2019-05-07T20:59:35.156Z,20.63
2019-05-07T21:02:05.012Z,22.00
2019-05-07T21:04:35.720Z,23.03
2019-05-07T21:07:05.539Z,25.23
2019-05-07T21:09:35.276Z,26.20
2019-05-07T21:12:05.064Z,25.27
2019-05-07T21:14:34.814Z,26.97
2019-05-07T21:17:07.621Z,29.77
2019-05-07T21:19:37.310Z,29.77
2019-05-07T21:22:07.012Z,29.03
2019-05-07T21:24:38.533Z,29.13
2019-05-07T21:27:08.304Z,29.33
2019-05-07T21:29:37.964Z,29.30
2019-05-07T21:32:07.604Z,30.50
2019-05-07T21:34:37.911Z,29.13
2019-05-07T21:37:08.569Z,31.67
2019-05-07T21:39:38.639Z,30.27
2019-05-07T21:42:08.348Z,31.23
2019-05-07T21:44:38.528Z,30.50
2019-05-07T21:47:08.265Z,31.20
2019-05-07T21:49:37.983Z,33.73
2019-05-07T21:52:07.717Z,34.33
2019-05-07T21:54:47.099Z,34.43
2019-05-07T21:57:33.000Z,34.27
2019-05-07T22:00:32.595Z,32.23
2019-05-07T22:03:04.538Z,31.47
2019-05-07T22:05:34.223Z,31.80
2019-05-07T22:08:03.973Z,30.87
2019-05-07T22:10:33.678Z,31.00
2019-05-07T22:13:03.402Z,30.37
2019-05-07T22:15:33.083Z,29.17
2019-05-07T22:18:02.834Z,29.30
2019-05-07T22:20:32.599Z,28.73
2019-05-07T22:23:02.817Z,29.67
2019-05-07T22:25:33.011Z,29.77
2019-05-07T22:28:04.767Z,29.90
2019-05-07T22:30:41.835Z,29.43
2019-05-07T22:33:17.748Z,30.30
2019-05-07T22:35:47.459Z,29.60
2019-05-07T22:38:17.142Z,30.80
2019-05-07T22:40:46.813Z,30.27
2019-05-07T22:43:16.505Z,31.27
2019-05-07T22:45:46.243Z,30.70
2019-05-07T22:48:15.947Z,31.10
2019-05-07T22:50:45.618Z,32.97
2019-05-07T22:53:15.316Z,31.67
2019-05-07T22:55:45.067Z,32.57
2019-05-07T22:58:22.000Z,31.23
2019-05-07T23:00:59.619Z,30.57
2019-05-07T23:03:29.299Z,31.93
2019-05-07T23:06:07.329Z,31.50
2019-05-07T23:08:39.048Z,31.73
2019-05-07T23:11:09.186Z,32.80
2019-05-07T23:13:38.982Z,32.53
2019-05-07T23:16:08.649Z,30.33
2019-05-07T23:18:38.402Z,32.50
2019-05-07T23:21:08.125Z,31.80
2019-05-07T23:23:37.790Z,31.80
2019-05-07T23:26:07.480Z,30.70
2019-05-07T23:28:37.136Z,28.67
2019-05-07T23:31:06.843Z,30.43
2019-05-07T23:33:36.584Z,29.00
2019-05-07T23:36:06.237Z,28.87
2019-05-07T23:38:35.900Z,29.00
2019-05-07T23:41:33.514Z,29.57
2019-05-07T23:44:18.312Z,31.47
2019-05-07T23:46:48.093Z,34.63
2019-05-07T23:49:17.763Z,32.93
2019-05-07T23:51:47.539Z,32.40
2019-05-07T23:54:17.204Z,32.40
2019-05-07T23:56:46.905Z,29.70
2019-05-07T23:59:16.622Z,28.67
